sensor_id;sensor_type;location;lat;lon;timestamp;temperature;humidity
42187;DHT22;27858;51.414;0.018;2023-02-22T00:00:53;7.40;99.90
42187;DHT22;27858;51.414;0.018;2023-02-22T00:03:26;7.30;99.90
42187;DHT22;27858;51.414;0.018;2023-02-22T00:06:04;7.10;99.90
42187;DHT22;27858;51.414;0.018;2023-02-22T00:08:33;7.50;99.90
42187;DHT22;27858;51.414;0.018;2023-02-22T00:11:06;7.20;99.90
42187;DHT22;27858;51.414;0.018;2023-02-22T00:13:37;7.40;99.90
42187;DHT22;27858;51.414;0.018;2023-02-22T00:16:05;7.50;99.90
42187;DHT22;27858;51.414;0.018;2023-02-22T00:18:32;7.20;99.90
42187;DHT22;27858;51.414;0.018;2023-02-22T00:20:59;7.20;99.90
42187;DHT22;27858;51.414;0.018;2023-02-22T00:23:28;7.50;99.90
42187;DHT22;27858;51.414;0.018;2023-02-22T00:25:56;7.60;99.90
42187;DHT22;27858;51.414;0.018;2023-02-22T00:28:23;7.50;99.90
42187;DHT22;27858;51.414;0.018;2023-02-22T00:30:50;7.30;99.90
42187;DHT22;27858;51.414;0.018;2023-02-22T00:33:17;7.60;99.90
42187;DHT22;27858;51.414;0.018;2023-02-22T00:35:44;7.30;99.90
42187;DHT22;27858;51.414;0.018;2023-02-22T00:38:13;7.60;99.90
42187;DHT22;27858;51.414;0.018;2023-02-22T00:40:40;7.50;99.90
42187;DHT22;27858;51.414;0.018;2023-02-22T00:43:07;7.60;99.90
42187;DHT22;27858;51.414;0.018;2023-02-22T00:45:35;7.60;99.90
42187;DHT22;27858;51.414;0.018;2023-02-22T00:48:04;7.30;99.90
42187;DHT22;27858;51.414;0.018;2023-02-22T00:50:32;7.70;99.90
42187;DHT22;27858;51.414;0.018;2023-02-22T00:53:00;7.60;99.90
42187;DHT22;27858;51.414;0.018;2023-02-22T00:55:31;7.40;99.90
42187;DHT22;27858;51.414;0.018;2023-02-22T00:57:58;7.70;99.90
42187;DHT22;27858;51.414;0.018;2023-02-22T05:00:36;7.10;99.90
42187;DHT22;27858;51.414;0.018;2023-02-22T05:03:03;7.30;99.90
42187;DHT22;27858;51.414;0.018;2023-02-22T05:05:30;6.90;99.90
42187;DHT22;27858;51.414;0.018;2023-02-22T05:07:57;7.10;99.90
42187;DHT22;27858;51.414;0.018;2023-02-22T05:10:23;7.30;99.90
42187;DHT22;27858;51.414;0.018;2023-02-22T05:12:50;7.30;99.90
42187;DHT22;27858;51.414;0.018;2023-02-22T05:15:19;7.00;99.90
42187;DHT22;27858;51.414;0.018;2023-02-22T05:17:46;7.30;99.90
42187;DHT22;27858;51.414;0.018;2023-02-22T05:20:40;6.90;99.90
42187;DHT22;27858;51.414;0.018;2023-02-22T05:23:07;7.30;99.90
42187;DHT22;27858;51.414;0.018;2023-02-22T05:25:34;6.90;99.90
42187;DHT22;27858;51.414;0.018;2023-02-22T05:28:04;7.00;99.90
42187;DHT22;27858;51.414;0.018;2023-02-22T05:30:34;7.10;99.90
42187;DHT22;27858;51.414;0.018;2023-02-22T05:33:01;7.20;99.90
42187;DHT22;27858;51.414;0.018;2023-02-22T05:35:28;7.30;99.90
42187;DHT22;27858;51.414;0.018;2023-02-22T05:37:55;7.30;99.90
42187;DHT22;27858;51.414;0.018;2023-02-22T05:40:24;7.20;99.90
42187;DHT22;27858;51.414;0.018;2023-02-22T05:42:52;6.90;99.90
42187;DHT22;27858;51.414;0.018;2023-02-22T05:45:21;6.90;99.90
42187;DHT22;27858;51.414;0.018;2023-02-22T05:47:49;7.30;99.90
42187;DHT22;27858;51.414;0.018;2023-02-22T05:50:16;7.30;99.90
42187;DHT22;27858;51.414;0.018;2023-02-22T05:52:43;7.10;99.90
42187;DHT22;27858;51.414;0.018;2023-02-22T05:55:12;6.90;99.90
42187;DHT22;27858;51.414;0.018;2023-02-22T05:57:39;7.30;99.90
42187;DHT22;27858;51.414;0.018;2023-02-22T06:00:08;7.00;99.90
42187;DHT22;27858;51.414;0.018;2023-02-22T06:02:35;7.40;99.90
42187;DHT22;27858;51.414;0.018;2023-02-22T06:05:02;7.10;99.90
42187;DHT22;27858;51.414;0.018;2023-02-22T06:07:29;7.40;99.90
42187;DHT22;27858;51.414;0.018;2023-02-22T06:09:55;7.10;99.90
42187;DHT22;27858;51.414;0.018;2023-02-22T06:12:23;7.40;99.90
42187;DHT22;27858;51.414;0.018;2023-02-22T06:14:50;7.00;99.90
42187;DHT22;27858;51.414;0.018;2023-02-22T06:17:16;7.40;99.90
42187;DHT22;27858;51.414;0.018;2023-02-22T06:19:46;7.00;99.90
42187;DHT22;27858;51.414;0.018;2023-02-22T06:22:17;7.20;99.90
42187;DHT22;27858;51.414;0.018;2023-02-22T06:24:45;7.50;99.90
42187;DHT22;27858;51.414;0.018;2023-02-22T06:27:11;7.30;99.90
42187;DHT22;27858;51.414;0.018;2023-02-22T06:29:38;7.10;99.90
42187;DHT22;27858;51.414;0.018;2023-02-22T06:32:09;7.30;99.90
42187;DHT22;27858;51.414;0.018;2023-02-22T06:34:36;7.50;99.90
42187;DHT22;27858;51.414;0.018;2023-02-22T06:37:03;7.10;99.90
42187;DHT22;27858;51.414;0.018;2023-02-22T06:39:30;7.10;99.90
42187;DHT22;27858;51.414;0.018;2023-02-22T06:41:56;7.20;99.90
42187;DHT22;27858;51.414;0.018;2023-02-22T06:44:25;7.30;99.90
42187;DHT22;27858;51.414;0.018;2023-02-22T06:46:52;7.20;99.90
42187;DHT22;27858;51.414;0.018;2023-02-22T06:49:19;7.20;99.90
42187;DHT22;27858;51.414;0.018;2023-02-22T06:51:46;7.50;99.90
42187;DHT22;27858;51.414;0.018;2023-02-22T06:54:13;7.60;99.90
42187;DHT22;27858;51.414;0.018;2023-02-22T06:56:40;7.60;99.90
42187;DHT22;27858;51.414;0.018;2023-02-22T06:59:07;7.60;99.90
42187;DHT22;27858;51.414;0.018;2023-02-22T07:01:34;7.50;99.90
42187;DHT22;27858;51.414;0.018;2023-02-22T07:04:01;7.60;99.90
42187;DHT22;27858;51.414;0.018;2023-02-22T07:06:28;7.30;99.90
42187;DHT22;27858;51.414;0.018;2023-02-22T07:08:55;7.20;99.90
42187;DHT22;27858;51.414;0.018;2023-02-22T07:11:22;7.50;99.90
42187;DHT22;27858;51.414;0.018;2023-02-22T07:13:49;7.60;99.90
42187;DHT22;27858;51.414;0.018;2023-02-22T07:16:15;7.40;99.90
42187;DHT22;27858;51.414;0.018;2023-02-22T07:18:42;7.40;99.90
42187;DHT22;27858;51.414;0.018;2023-02-22T07:21:09;7.20;99.90
42187;DHT22;27858;51.414;0.018;2023-02-22T07:23:36;7.20;99.90
42187;DHT22;27858;51.414;0.018;2023-02-22T07:26:03;7.10;99.90
42187;DHT22;27858;51.414;0.018;2023-02-22T07:28:33;7.30;99.90
42187;DHT22;27858;51.414;0.018;2023-02-22T07:31:00;7.10;99.90
42187;DHT22;27858;51.414;0.018;2023-02-22T07:33:27;7.20;99.90
42187;DHT22;27858;51.414;0.018;2023-02-22T07:35:53;7.10;99.90
42187;DHT22;27858;51.414;0.018;2023-02-22T07:38:20;7.20;99.90
42187;DHT22;27858;51.414;0.018;2023-02-22T07:40:47;7.60;99.90
42187;DHT22;27858;51.414;0.018;2023-02-22T07:43:23;7.60;99.90
42187;DHT22;27858;51.414;0.018;2023-02-22T07:45:51;7.40;99.90
42187;DHT22;27858;51.414;0.018;2023-02-22T07:48:21;7.70;99.90
42187;DHT22;27858;51.414;0.018;2023-02-22T07:50:48;7.10;99.90
42187;DHT22;27858;51.414;0.018;2023-02-22T07:53:18;7.20;99.90
42187;DHT22;27858;51.414;0.018;2023-02-22T07:55:45;7.60;99.90
42187;DHT22;27858;51.414;0.018;2023-02-22T07:58:19;7.70;99.90
42187;DHT22;27858;51.414;0.018;2023-02-22T08:00:46;7.70;99.90
42187;DHT22;27858;51.414;0.018;2023-02-22T08:03:16;7.30;99.90
42187;DHT22;27858;51.414;0.018;2023-02-22T08:05:52;7.70;99.90
42187;DHT22;27858;51.414;0.018;2023-02-22T08:08:20;7.80;99.90
42187;DHT22;27858;51.414;0.018;2023-02-22T08:10:48;7.50;99.90
42187;DHT22;27858;51.414;0.018;2023-02-22T08:13:17;7.70;99.90
42187;DHT22;27858;51.414;0.018;2023-02-22T08:15:44;7.40;99.90
42187;DHT22;27858;51.414;0.018;2023-02-22T08:18:17;7.80;99.90
42187;DHT22;27858;51.414;0.018;2023-02-22T08:20:46;7.80;99.90
42187;DHT22;27858;51.414;0.018;2023-02-22T08:23:14;7.40;99.90
42187;DHT22;27858;51.414;0.018;2023-02-22T08:25:41;7.90;99.90
42187;DHT22;27858;51.414;0.018;2023-02-22T08:28:10;7.90;99.90
42187;DHT22;27858;51.414;0.018;2023-02-22T08:30:39;7.80;99.90
42187;DHT22;27858;51.414;0.018;2023-02-22T08:33:09;7.50;99.90
42187;DHT22;27858;51.414;0.018;2023-02-22T08:35:36;7.70;99.90
42187;DHT22;27858;51.414;0.018;2023-02-22T08:38:04;7.80;99.90
42187;DHT22;27858;51.414;0.018;2023-02-22T08:40:34;8.00;99.90
42187;DHT22;27858;51.414;0.018;2023-02-22T08:43:01;7.70;99.90
42187;DHT22;27858;51.414;0.018;2023-02-22T08:45:28;7.60;99.90
42187;DHT22;27858;51.414;0.018;2023-02-22T08:47:58;7.80;99.90
42187;DHT22;27858;51.414;0.018;2023-02-22T08:50:30;8.00;99.90
42187;DHT22;27858;51.414;0.018;2023-02-22T08:53:02;7.50;99.90
42187;DHT22;27858;51.414;0.018;2023-02-22T08:55:32;7.70;99.90
42187;DHT22;27858;51.414;0.018;2023-02-22T08:58:01;7.90;99.90
42187;DHT22;27858;51.414;0.018;2023-02-22T09:00:30;7.70;99.90
42187;DHT22;27858;51.414;0.018;2023-02-22T09:03:06;8.10;99.90
42187;DHT22;27858;51.414;0.018;2023-02-22T09:05:33;7.70;99.90
42187;DHT22;27858;51.414;0.018;2023-02-22T09:08:00;7.60;99.90
42187;DHT22;27858;51.414;0.018;2023-02-22T09:10:30;8.00;99.90
42187;DHT22;27858;51.414;0.018;2023-02-22T09:12:57;8.10;99.90
42187;DHT22;27858;51.414;0.018;2023-02-22T09:15:26;8.20;99.90
42187;DHT22;27858;51.414;0.018;2023-02-22T09:17:54;7.80;99.90
42187;DHT22;27858;51.414;0.018;2023-02-22T09:20:22;8.10;99.90
42187;DHT22;27858;51.414;0.018;2023-02-22T09:22:49;7.70;99.90
42187;DHT22;27858;51.414;0.018;2023-02-22T09:25:17;7.70;99.90
42187;DHT22;27858;51.414;0.018;2023-02-22T09:27:48;8.10;99.90
42187;DHT22;27858;51.414;0.018;2023-02-22T09:30:26;7.70;99.90
42187;DHT22;27858;51.414;0.018;2023-02-22T09:32:56;8.20;99.90
42187;DHT22;27858;51.414;0.018;2023-02-22T09:35:24;7.70;99.90
42187;DHT22;27858;51.414;0.018;2023-02-22T09:37:58;8.20;99.90
42187;DHT22;27858;51.414;0.018;2023-02-22T09:40:31;8.10;99.90
42187;DHT22;27858;51.414;0.018;2023-02-22T09:48:30;7.90;99.90
42187;DHT22;27858;51.414;0.018;2023-02-22T09:50:59;7.80;99.90
42187;DHT22;27858;51.414;0.018;2023-02-22T09:53:32;7.70;99.90
42187;DHT22;27858;51.414;0.018;2023-02-22T09:56:07;7.80;99.90
42187;DHT22;27858;51.414;0.018;2023-02-22T09:58:51;8.30;99.90
42187;DHT22;27858;51.414;0.018;2023-02-22T10:01:30;8.30;99.90
42187;DHT22;27858;51.414;0.018;2023-02-22T10:04:16;7.90;99.90
42187;DHT22;27858;51.414;0.018;2023-02-22T10:09:18;8.00;99.90
42187;DHT22;27858;51.414;0.018;2023-02-22T10:12:00;8.40;99.90
42187;DHT22;27858;51.414;0.018;2023-02-22T10:20:36;8.50;99.90
42187;DHT22;27858;51.414;0.018;2023-02-22T10:23:13;8.20;99.90
42187;DHT22;27858;51.414;0.018;2023-02-22T10:25:44;8.40;99.90
42187;DHT22;27858;51.414;0.018;2023-02-22T10:28:18;8.60;99.90
42187;DHT22;27858;51.414;0.018;2023-02-22T10:30:57;8.70;99.90
42187;DHT22;27858;51.414;0.018;2023-02-22T10:33:40;8.60;99.90
42187;DHT22;27858;51.414;0.018;2023-02-22T10:36:17;8.20;99.90
42187;DHT22;27858;51.414;0.018;2023-02-22T10:38:52;8.40;99.90
42187;DHT22;27858;51.414;0.018;2023-02-22T10:41:43;8.60;99.90
42187;DHT22;27858;51.414;0.018;2023-02-22T10:44:13;8.00;99.90
42187;DHT22;27858;51.414;0.018;2023-02-22T10:46:41;8.50;99.90
42187;DHT22;27858;51.414;0.018;2023-02-22T10:49:10;8.20;99.90
42187;DHT22;27858;51.414;0.018;2023-02-22T10:51:38;8.60;99.90
42187;DHT22;27858;51.414;0.018;2023-02-22T10:54:24;8.50;99.90
42187;DHT22;27858;51.414;0.018;2023-02-22T10:56:54;8.70;99.90
42187;DHT22;27858;51.414;0.018;2023-02-22T10:59:36;8.30;99.90
42187;DHT22;27858;51.414;0.018;2023-02-22T11:02:20;8.20;99.90
42187;DHT22;27858;51.414;0.018;2023-02-22T11:04:50;8.30;99.90
42187;DHT22;27858;51.414;0.018;2023-02-22T11:10:00;8.70;99.90
42187;DHT22;27858;51.414;0.018;2023-02-22T11:17:50;9.00;99.90
42187;DHT22;27858;51.414;0.018;2023-02-22T11:22:56;8.70;99.90
42187;DHT22;27858;51.414;0.018;2023-02-22T11:25:35;9.20;99.90
42187;DHT22;27858;51.414;0.018;2023-02-22T11:28:25;8.70;99.90
42187;DHT22;27858;51.414;0.018;2023-02-22T11:31:07;8.90;99.90
42187;DHT22;27858;51.414;0.018;2023-02-22T11:33:35;8.70;99.90
42187;DHT22;27858;51.414;0.018;2023-02-22T11:36:04;8.90;99.90
42187;DHT22;27858;51.414;0.018;2023-02-22T11:38:36;8.90;99.90
42187;DHT22;27858;51.414;0.018;2023-02-22T11:41:19;8.70;99.90
42187;DHT22;27858;51.414;0.018;2023-02-22T11:43:50;8.70;99.90
42187;DHT22;27858;51.414;0.018;2023-02-22T11:46:22;9.20;99.90
42187;DHT22;27858;51.414;0.018;2023-02-22T11:49:10;9.20;99.90
42187;DHT22;27858;51.414;0.018;2023-02-22T11:51:47;9.10;99.90
42187;DHT22;27858;51.414;0.018;2023-02-22T11:54:31;8.70;99.90
42187;DHT22;27858;51.414;0.018;2023-02-22T12:02:52;8.70;99.90
42187;DHT22;27858;51.414;0.018;2023-02-22T12:08:24;9.40;99.90
42187;DHT22;27858;51.414;0.018;2023-02-22T12:19:52;9.00;99.90
42187;DHT22;27858;51.414;0.018;2023-02-22T12:22:26;8.90;99.90
42187;DHT22;27858;51.414;0.018;2023-02-22T12:25:06;8.80;99.90
42187;DHT22;27858;51.414;0.018;2023-02-22T12:27:49;9.30;99.90
42187;DHT22;27858;51.414;0.018;2023-02-22T12:30:26;8.70;99.90
42187;DHT22;27858;51.414;0.018;2023-02-22T12:32:58;9.10;99.90
42187;DHT22;27858;51.414;0.018;2023-02-22T12:35:36;8.80;99.90
42187;DHT22;27858;51.414;0.018;2023-02-22T12:40:55;9.30;99.90
42187;DHT22;27858;51.414;0.018;2023-02-22T12:43:34;8.80;99.90
42187;DHT22;27858;51.414;0.018;2023-02-22T12:49:05;9.30;99.90
42187;DHT22;27858;51.414;0.018;2023-02-22T12:51:37;9.20;99.90
42187;DHT22;27858;51.414;0.018;2023-02-22T12:54:15;9.30;99.90
42187;DHT22;27858;51.414;0.018;2023-02-22T12:56:54;9.30;99.90
42187;DHT22;27858;51.414;0.018;2023-02-22T12:59:36;8.90;99.90
42187;DHT22;27858;51.414;0.018;2023-02-22T13:02:14;8.70;99.90
42187;DHT22;27858;51.414;0.018;2023-02-22T13:04:43;9.10;99.90
42187;DHT22;27858;51.414;0.018;2023-02-22T13:13:03;9.20;99.90
42187;DHT22;27858;51.414;0.018;2023-02-22T13:18:18;8.70;99.90
42187;DHT22;27858;51.414;0.018;2023-02-22T13:23:48;8.60;99.90
42187;DHT22;27858;51.414;0.018;2023-02-22T13:26:27;8.80;99.90
42187;DHT22;27858;51.414;0.018;2023-02-22T13:29:15;8.70;99.90
42187;DHT22;27858;51.414;0.018;2023-02-22T13:54:16;8.90;99.90
42187;DHT22;27858;51.414;0.018;2023-02-22T13:56:47;8.90;99.90
42187;DHT22;27858;51.414;0.018;2023-02-22T13:59:35;9.40;99.90
42187;DHT22;27858;51.414;0.018;2023-02-22T14:02:04;9.00;99.90
42187;DHT22;27858;51.414;0.018;2023-02-22T14:04:37;9.40;99.90
42187;DHT22;27858;51.414;0.018;2023-02-22T14:10:48;9.30;99.90
42187;DHT22;27858;51.414;0.018;2023-02-22T14:13:26;9.50;99.90
42187;DHT22;27858;51.414;0.018;2023-02-22T14:18:28;9.70;99.90
42187;DHT22;27858;51.414;0.018;2023-02-22T14:21:09;9.60;99.90
42187;DHT22;27858;51.414;0.018;2023-02-22T14:23:40;9.60;99.90
42187;DHT22;27858;51.414;0.018;2023-02-22T14:31:35;9.50;99.90
42187;DHT22;27858;51.414;0.018;2023-02-22T14:34:23;9.60;99.90
42187;DHT22;27858;51.414;0.018;2023-02-22T14:37:07;9.20;99.90
42187;DHT22;27858;51.414;0.018;2023-02-22T14:45:04;9.60;99.90
42187;DHT22;27858;51.414;0.018;2023-02-22T14:47:58;9.80;99.90
42187;DHT22;27858;51.414;0.018;2023-02-22T14:50:56;9.40;99.90
42187;DHT22;27858;51.414;0.018;2023-02-22T14:53:53;9.70;99.90
42187;DHT22;27858;51.414;0.018;2023-02-22T14:56:30;9.70;99.90
42187;DHT22;27858;51.414;0.018;2023-02-22T15:01:37;9.60;99.90
42187;DHT22;27858;51.414;0.018;2023-02-22T15:04:28;10.00;99.90
42187;DHT22;27858;51.414;0.018;2023-02-22T15:06:58;10.00;99.90
42187;DHT22;27858;51.414;0.018;2023-02-22T15:09:27;9.80;99.90
42187;DHT22;27858;51.414;0.018;2023-02-22T15:14:36;9.90;99.90
42187;DHT22;27858;51.414;0.018;2023-02-22T15:17:12;9.80;99.90
42187;DHT22;27858;51.414;0.018;2023-02-22T15:19:42;10.10;99.90
42187;DHT22;27858;51.414;0.018;2023-02-22T15:22:23;10.00;99.90
42187;DHT22;27858;51.414;0.018;2023-02-22T15:25:04;9.50;99.90
42187;DHT22;27858;51.414;0.018;2023-02-22T15:27:31;9.50;99.90
42187;DHT22;27858;51.414;0.018;2023-02-22T15:30:32;9.50;99.90
42187;DHT22;27858;51.414;0.018;2023-02-22T15:33:32;9.90;99.90
42187;DHT22;27858;51.414;0.018;2023-02-22T15:36:03;9.90;99.90
42187;DHT22;27858;51.414;0.018;2023-02-22T15:38:31;9.50;99.90
42187;DHT22;27858;51.414;0.018;2023-02-22T15:41:03;9.80;99.90
42187;DHT22;27858;51.414;0.018;2023-02-22T15:43:30;9.60;99.90
42187;DHT22;27858;51.414;0.018;2023-02-22T15:45:59;10.00;99.90
42187;DHT22;27858;51.414;0.018;2023-02-22T15:48:27;9.70;99.90
42187;DHT22;27858;51.414;0.018;2023-02-22T15:51:09;10.00;99.90
42187;DHT22;27858;51.414;0.018;2023-02-22T15:56:10;10.00;99.90
42187;DHT22;27858;51.414;0.018;2023-02-22T15:58:38;9.80;99.90
42187;DHT22;27858;51.414;0.018;2023-02-22T16:01:13;9.70;99.90
42187;DHT22;27858;51.414;0.018;2023-02-22T16:03:52;9.70;99.90
42187;DHT22;27858;51.414;0.018;2023-02-22T16:06:35;9.70;99.90
42187;DHT22;27858;51.414;0.018;2023-02-22T16:09:18;9.70;99.90
42187;DHT22;27858;51.414;0.018;2023-02-22T16:12:19;9.90;99.90
42187;DHT22;27858;51.414;0.018;2023-02-22T16:14:48;9.80;99.90
42187;DHT22;27858;51.414;0.018;2023-02-22T16:19:54;9.60;99.90
42187;DHT22;27858;51.414;0.018;2023-02-22T16:22:32;9.40;99.90
42187;DHT22;27858;51.414;0.018;2023-02-22T16:27:48;9.70;99.90
42187;DHT22;27858;51.414;0.018;2023-02-22T16:30:29;9.90;99.90
42187;DHT22;27858;51.414;0.018;2023-02-22T16:33:04;9.40;99.90
42187;DHT22;27858;51.414;0.018;2023-02-22T16:35:32;9.90;99.90
42187;DHT22;27858;51.414;0.018;2023-02-22T16:38:02;9.90;99.90
42187;DHT22;27858;51.414;0.018;2023-02-22T16:40:34;9.80;99.90
42187;DHT22;27858;51.414;0.018;2023-02-22T16:43:06;9.60;99.90
42187;DHT22;27858;51.414;0.018;2023-02-22T16:45:34;9.70;99.90
42187;DHT22;27858;51.414;0.018;2023-02-22T16:48:18;9.40;99.90
42187;DHT22;27858;51.414;0.018;2023-02-22T16:50:51;9.90;99.90
42187;DHT22;27858;51.414;0.018;2023-02-22T16:53:21;9.70;99.90
42187;DHT22;27858;51.414;0.018;2023-02-22T16:55:49;9.70;99.90
42187;DHT22;27858;51.414;0.018;2023-02-22T16:58:18;9.50;99.90
42187;DHT22;27858;51.414;0.018;2023-02-22T17:00:45;9.70;99.90
42187;DHT22;27858;51.414;0.018;2023-02-22T17:03:16;9.60;99.90
42187;DHT22;27858;51.414;0.018;2023-02-22T17:05:43;9.80;99.90
42187;DHT22;27858;51.414;0.018;2023-02-22T17:08:10;9.40;99.90
42187;DHT22;27858;51.414;0.018;2023-02-22T17:10:37;9.40;99.90
42187;DHT22;27858;51.414;0.018;2023-02-22T17:13:05;9.50;99.90
42187;DHT22;27858;51.414;0.018;2023-02-22T17:15:48;9.70;99.90
42187;DHT22;27858;51.414;0.018;2023-02-22T17:18:17;9.40;99.90
42187;DHT22;27858;51.414;0.018;2023-02-22T17:20:49;9.40;99.90
42187;DHT22;27858;51.414;0.018;2023-02-22T17:23:17;9.70;99.90
42187;DHT22;27858;51.414;0.018;2023-02-22T17:25:50;9.40;99.90
42187;DHT22;27858;51.414;0.018;2023-02-22T17:28:22;9.60;99.90
42187;DHT22;27858;51.414;0.018;2023-02-22T17:30:50;9.40;99.90
42187;DHT22;27858;51.414;0.018;2023-02-22T17:33:21;9.50;99.90
42187;DHT22;27858;51.414;0.018;2023-02-22T17:35:48;9.40;99.90
42187;DHT22;27858;51.414;0.018;2023-02-22T17:38:15;9.30;99.90
42187;DHT22;27858;51.414;0.018;2023-02-22T17:40:46;9.60;99.90
42187;DHT22;27858;51.414;0.018;2023-02-22T17:43:23;9.30;99.90
42187;DHT22;27858;51.414;0.018;2023-02-22T17:45:50;9.60;99.90
42187;DHT22;27858;51.414;0.018;2023-02-22T17:48:19;9.60;99.90
42187;DHT22;27858;51.414;0.018;2023-02-22T17:50:49;9.50;99.90
42187;DHT22;27858;51.414;0.018;2023-02-22T17:53:16;9.40;99.90
42187;DHT22;27858;51.414;0.018;2023-02-22T17:55:48;9.40;99.90
42187;DHT22;27858;51.414;0.018;2023-02-22T17:58:16;9.50;99.90
42187;DHT22;27858;51.414;0.018;2023-02-22T18:00:47;9.50;99.90
42187;DHT22;27858;51.414;0.018;2023-02-22T18:03:16;9.50;99.90
42187;DHT22;27858;51.414;0.018;2023-02-22T18:05:48;9.20;99.90
42187;DHT22;27858;51.414;0.018;2023-02-22T18:08:16;9.10;99.90
42187;DHT22;27858;51.414;0.018;2023-02-22T18:10:44;9.20;99.90
42187;DHT22;27858;51.414;0.018;2023-02-22T18:13:13;9.30;99.90
42187;DHT22;27858;51.414;0.018;2023-02-22T18:15:42;9.40;99.90
42187;DHT22;27858;51.414;0.018;2023-02-22T18:18:10;9.20;99.90
42187;DHT22;27858;51.414;0.018;2023-02-22T18:20:43;9.30;99.90
42187;DHT22;27858;51.414;0.018;2023-02-22T18:23:17;9.40;99.90
42187;DHT22;27858;51.414;0.018;2023-02-22T18:25:47;9.20;99.90
42187;DHT22;27858;51.414;0.018;2023-02-22T18:28:35;9.30;99.90
42187;DHT22;27858;51.414;0.018;2023-02-22T18:31:11;9.30;99.90
42187;DHT22;27858;51.414;0.018;2023-02-22T18:33:43;9.50;99.90
42187;DHT22;27858;51.414;0.018;2023-02-22T18:36:11;9.10;99.90
42187;DHT22;27858;51.414;0.018;2023-02-22T18:38:39;9.30;99.90
42187;DHT22;27858;51.414;0.018;2023-02-22T18:41:15;9.20;99.90
42187;DHT22;27858;51.414;0.018;2023-02-22T18:43:43;9.20;99.90
42187;DHT22;27858;51.414;0.018;2023-02-22T18:46:13;9.10;99.90
42187;DHT22;27858;51.414;0.018;2023-02-22T18:48:40;9.20;99.90
42187;DHT22;27858;51.414;0.018;2023-02-22T18:51:10;9.30;99.90
42187;DHT22;27858;51.414;0.018;2023-02-22T18:53:38;9.10;99.90
42187;DHT22;27858;51.414;0.018;2023-02-22T18:56:11;9.20;99.90
42187;DHT22;27858;51.414;0.018;2023-02-22T18:58:39;9.40;99.90
42187;DHT22;27858;51.414;0.018;2023-02-22T19:01:14;9.10;99.90
42187;DHT22;27858;51.414;0.018;2023-02-22T19:03:41;9.20;99.90
42187;DHT22;27858;51.414;0.018;2023-02-22T19:06:08;9.30;99.90
42187;DHT22;27858;51.414;0.018;2023-02-22T19:08:39;9.20;99.90
42187;DHT22;27858;51.414;0.018;2023-02-22T19:11:14;9.40;99.90
42187;DHT22;27858;51.414;0.018;2023-02-22T19:13:48;9.10;99.90
42187;DHT22;27858;51.414;0.018;2023-02-22T19:16:17;9.40;99.90
42187;DHT22;27858;51.414;0.018;2023-02-22T19:18:46;9.40;99.90
42187;DHT22;27858;51.414;0.018;2023-02-22T19:21:14;9.10;99.90
42187;DHT22;27858;51.414;0.018;2023-02-22T19:23:42;9.20;99.90
42187;DHT22;27858;51.414;0.018;2023-02-22T19:26:15;9.10;99.90
42187;DHT22;27858;51.414;0.018;2023-02-22T19:28:46;9.10;99.90
42187;DHT22;27858;51.414;0.018;2023-02-22T19:31:16;9.30;99.90
42187;DHT22;27858;51.414;0.018;2023-02-22T19:33:45;9.40;99.90
42187;DHT22;27858;51.414;0.018;2023-02-22T19:36:14;9.10;99.90
42187;DHT22;27858;51.414;0.018;2023-02-22T19:38:41;9.10;99.90
42187;DHT22;27858;51.414;0.018;2023-02-22T19:41:17;9.40;99.90
42187;DHT22;27858;51.414;0.018;2023-02-22T19:43:46;9.30;99.90
42187;DHT22;27858;51.414;0.018;2023-02-22T19:46:14;9.40;99.90
42187;DHT22;27858;51.414;0.018;2023-02-22T19:48:44;9.00;99.90
42187;DHT22;27858;51.414;0.018;2023-02-22T19:51:13;9.10;99.90
42187;DHT22;27858;51.414;0.018;2023-02-22T19:53:41;9.20;99.90
42187;DHT22;27858;51.414;0.018;2023-02-22T19:56:19;9.00;99.90
42187;DHT22;27858;51.414;0.018;2023-02-22T19:58:54;9.00;99.90
42187;DHT22;27858;51.414;0.018;2023-02-22T20:01:28;9.00;99.90
42187;DHT22;27858;51.414;0.018;2023-02-22T20:04:01;9.00;99.90
42187;DHT22;27858;51.414;0.018;2023-02-22T20:06:32;9.20;99.90
42187;DHT22;27858;51.414;0.018;2023-02-22T20:09:01;9.20;99.90
42187;DHT22;27858;51.414;0.018;2023-02-22T20:11:28;9.10;99.90
42187;DHT22;27858;51.414;0.018;2023-02-22T20:13:55;9.10;99.90
42187;DHT22;27858;51.414;0.018;2023-02-22T20:16:22;9.20;99.90
42187;DHT22;27858;51.414;0.018;2023-02-22T20:18:50;9.20;99.90
42187;DHT22;27858;51.414;0.018;2023-02-22T20:21:20;9.10;99.90
42187;DHT22;27858;51.414;0.018;2023-02-22T20:23:47;8.90;99.90
42187;DHT22;27858;51.414;0.018;2023-02-22T20:26:21;8.90;99.90
42187;DHT22;27858;51.414;0.018;2023-02-22T20:28:50;9.00;99.90
42187;DHT22;27858;51.414;0.018;2023-02-22T20:31:19;8.90;99.90
42187;DHT22;27858;51.414;0.018;2023-02-22T20:33:50;9.00;99.90
42187;DHT22;27858;51.414;0.018;2023-02-22T20:36:18;9.00;99.90
42187;DHT22;27858;51.414;0.018;2023-02-22T20:38:50;8.80;99.90
42187;DHT22;27858;51.414;0.018;2023-02-22T20:41:28;9.00;99.90
42187;DHT22;27858;51.414;0.018;2023-02-22T20:43:56;8.90;99.90
42187;DHT22;27858;51.414;0.018;2023-02-22T20:46:25;9.00;99.90
42187;DHT22;27858;51.414;0.018;2023-02-22T20:48:56;8.80;99.90
42187;DHT22;27858;51.414;0.018;2023-02-22T20:51:25;8.90;99.90
42187;DHT22;27858;51.414;0.018;2023-02-22T20:53:52;8.80;99.90
42187;DHT22;27858;51.414;0.018;2023-02-22T20:56:21;8.90;99.90
42187;DHT22;27858;51.414;0.018;2023-02-22T20:58:48;8.80;99.90
42187;DHT22;27858;51.414;0.018;2023-02-22T21:01:17;8.70;99.90
42187;DHT22;27858;51.414;0.018;2023-02-22T21:03:45;8.90;99.90
42187;DHT22;27858;51.414;0.018;2023-02-22T21:06:13;8.80;99.90
42187;DHT22;27858;51.414;0.018;2023-02-22T21:08:44;8.90;99.90
42187;DHT22;27858;51.414;0.018;2023-02-22T21:11:16;8.80;99.90
42187;DHT22;27858;51.414;0.018;2023-02-22T21:13:44;8.80;99.90
42187;DHT22;27858;51.414;0.018;2023-02-22T21:16:20;8.80;99.90
42187;DHT22;27858;51.414;0.018;2023-02-22T21:18:52;8.70;99.90
42187;DHT22;27858;51.414;0.018;2023-02-22T21:21:20;8.80;99.90
42187;DHT22;27858;51.414;0.018;2023-02-22T21:23:49;8.70;99.90
42187;DHT22;27858;51.414;0.018;2023-02-22T21:26:21;8.80;99.90
42187;DHT22;27858;51.414;0.018;2023-02-22T21:28:50;8.70;99.90
42187;DHT22;27858;51.414;0.018;2023-02-22T21:31:19;8.70;99.90
42187;DHT22;27858;51.414;0.018;2023-02-22T21:33:51;8.70;99.90
42187;DHT22;27858;51.414;0.018;2023-02-22T21:36:19;8.60;99.90
42187;DHT22;27858;51.414;0.018;2023-02-22T21:38:47;8.60;99.90
42187;DHT22;27858;51.414;0.018;2023-02-22T21:41:19;8.60;99.90
42187;DHT22;27858;51.414;0.018;2023-02-22T21:43:50;8.50;99.90
42187;DHT22;27858;51.414;0.018;2023-02-22T21:46:17;8.50;99.90
42187;DHT22;27858;51.414;0.018;2023-02-22T21:48:45;8.50;99.90
42187;DHT22;27858;51.414;0.018;2023-02-22T21:51:25;8.60;99.90
42187;DHT22;27858;51.414;0.018;2023-02-22T21:53:53;8.50;99.90
42187;DHT22;27858;51.414;0.018;2023-02-22T21:56:24;8.50;99.90
42187;DHT22;27858;51.414;0.018;2023-02-22T21:59:02;8.50;99.90
42187;DHT22;27858;51.414;0.018;2023-02-22T22:01:42;8.40;99.90
42187;DHT22;27858;51.414;0.018;2023-02-22T22:04:18;8.50;99.90